Terminal Aerodrome Forecast
Issued by NWS

Home | Current Version | Previous Version | Text Only | Print | Product List | Glossary On
Versions: 1 2 3 4 5 6 7 8 9 10 11 12 13 14
000
FTUS46 KLOX 211100
TAFPMD
TAF
KPMD 211131Z 2112/2212 20007KT P6SM SKC
     FM212100 24015G22KT P6SM VCTS FEW070CB SCT150
     FM220300 23012KT P6SM SCT150
     FM220900 VRB05KT P6SM SKC=

USA.gov is the U.S. government's official web portal to all federal, state and local government web resources and services.